sensor_id;sensor_type;location;lat;lon;timestamp;temperature;humidity
6102;DHT22;3081;50.584;7.032;2023-04-25T00:00:51;8.20;99.90
6102;DHT22;3081;50.584;7.032;2023-04-25T00:03:19;8.10;99.90
6102;DHT22;3081;50.584;7.032;2023-04-25T00:05:46;8.00;99.90
6102;DHT22;3081;50.584;7.032;2023-04-25T00:08:15;8.00;99.90
6102;DHT22;3081;50.584;7.032;2023-04-25T00:10:42;8.00;99.90
6102;DHT22;3081;50.584;7.032;2023-04-25T00:13:09;7.90;99.90
6102;DHT22;3081;50.584;7.032;2023-04-25T00:15:37;7.90;99.90
6102;DHT22;3081;50.584;7.032;2023-04-25T00:18:04;7.80;99.90
6102;DHT22;3081;50.584;7.032;2023-04-25T00:20:32;7.80;99.90
6102;DHT22;3081;50.584;7.032;2023-04-25T00:22:59;7.70;99.90
6102;DHT22;3081;50.584;7.032;2023-04-25T00:25:27;7.70;99.90
6102;DHT22;3081;50.584;7.032;2023-04-25T00:27:54;7.60;99.90
6102;DHT22;3081;50.584;7.032;2023-04-25T00:30:21;7.60;99.90
6102;DHT22;3081;50.584;7.032;2023-04-25T00:32:48;7.50;99.90
6102;DHT22;3081;50.584;7.032;2023-04-25T00:35:15;7.50;99.90
6102;DHT22;3081;50.584;7.032;2023-04-25T00:37:42;7.50;99.90
6102;DHT22;3081;50.584;7.032;2023-04-25T00:40:09;7.40;99.90
6102;DHT22;3081;50.584;7.032;2023-04-25T00:42:38;7.40;99.90
6102;DHT22;3081;50.584;7.032;2023-04-25T00:45:07;7.30;99.90
6102;DHT22;3081;50.584;7.032;2023-04-25T00:47:36;7.20;99.90
6102;DHT22;3081;50.584;7.032;2023-04-25T00:50:03;7.10;99.90
6102;DHT22;3081;50.584;7.032;2023-04-25T00:52:30;7.10;99.90
6102;DHT22;3081;50.584;7.032;2023-04-25T00:54:57;7.10;99.90
6102;DHT22;3081;50.584;7.032;2023-04-25T00:57:24;7.00;99.90
6102;DHT22;3081;50.584;7.032;2023-04-25T00:59:53;6.90;99.90
6102;DHT22;3081;50.584;7.032;2023-04-25T01:02:20;6.90;99.90
6102;DHT22;3081;50.584;7.032;2023-04-25T01:04:48;6.80;99.90
6102;DHT22;3081;50.584;7.032;2023-04-25T01:07:15;6.80;99.90
6102;DHT22;3081;50.584;7.032;2023-04-25T01:09:41;6.70;99.90
6102;DHT22;3081;50.584;7.032;2023-04-25T01:12:09;6.70;99.90
6102;DHT22;3081;50.584;7.032;2023-04-25T01:14:36;6.60;99.90
6102;DHT22;3081;50.584;7.032;2023-04-25T01:17:04;6.50;99.90
6102;DHT22;3081;50.584;7.032;2023-04-25T01:19:33;6.50;99.90
6102;DHT22;3081;50.584;7.032;2023-04-25T01:22:01;6.40;99.90
6102;DHT22;3081;50.584;7.032;2023-04-25T01:24:29;6.40;99.90
6102;DHT22;3081;50.584;7.032;2023-04-25T01:26:58;6.30;99.90
6102;DHT22;3081;50.584;7.032;2023-04-25T01:29:27;6.20;99.90
6102;DHT22;3081;50.584;7.032;2023-04-25T01:31:54;6.20;99.90
6102;DHT22;3081;50.584;7.032;2023-04-25T01:34:22;6.20;99.90
6102;DHT22;3081;50.584;7.032;2023-04-25T01:36:49;6.20;99.90
6102;DHT22;3081;50.584;7.032;2023-04-25T01:39:18;6.30;99.90
6102;DHT22;3081;50.584;7.032;2023-04-25T01:41:45;6.20;99.90
6102;DHT22;3081;50.584;7.032;2023-04-25T01:44:13;6.30;99.90
6102;DHT22;3081;50.584;7.032;2023-04-25T01:46:40;6.30;99.90
6102;DHT22;3081;50.584;7.032;2023-04-25T01:49:07;6.30;99.90
6102;DHT22;3081;50.584;7.032;2023-04-25T01:51:34;6.20;99.90
6102;DHT22;3081;50.584;7.032;2023-04-25T01:54:01;6.20;99.90
6102;DHT22;3081;50.584;7.032;2023-04-25T01:56:31;6.20;99.90
6102;DHT22;3081;50.584;7.032;2023-04-25T01:58:58;6.20;99.90
6102;DHT22;3081;50.584;7.032;2023-04-25T02:01:25;6.20;99.90
6102;DHT22;3081;50.584;7.032;2023-04-25T02:03:52;6.20;99.90
6102;DHT22;3081;50.584;7.032;2023-04-25T02:06:19;6.20;99.90
6102;DHT22;3081;50.584;7.032;2023-04-25T02:08:46;6.20;99.90
6102;DHT22;3081;50.584;7.032;2023-04-25T02:11:13;6.20;99.90
6102;DHT22;3081;50.584;7.032;2023-04-25T02:13:41;6.20;99.90
6102;DHT22;3081;50.584;7.032;2023-04-25T02:16:08;6.20;99.90
6102;DHT22;3081;50.584;7.032;2023-04-25T02:18:35;6.20;99.90
6102;DHT22;3081;50.584;7.032;2023-04-25T02:21:03;6.20;99.90
6102;DHT22;3081;50.584;7.032;2023-04-25T02:23:30;6.20;99.90
6102;DHT22;3081;50.584;7.032;2023-04-25T02:25:57;6.30;99.90
6102;DHT22;3081;50.584;7.032;2023-04-25T02:28:24;6.30;99.90
6102;DHT22;3081;50.584;7.032;2023-04-25T02:30:53;6.30;99.90
6102;DHT22;3081;50.584;7.032;2023-04-25T02:33:20;6.30;99.90
6102;DHT22;3081;50.584;7.032;2023-04-25T02:35:47;6.40;99.90
6102;DHT22;3081;50.584;7.032;2023-04-25T02:38:14;6.50;99.90
6102;DHT22;3081;50.584;7.032;2023-04-25T02:40:41;6.50;99.90
6102;DHT22;3081;50.584;7.032;2023-04-25T02:43:08;6.50;99.90
6102;DHT22;3081;50.584;7.032;2023-04-25T02:45:35;6.50;99.90
6102;DHT22;3081;50.584;7.032;2023-04-25T02:48:05;6.60;99.90
6102;DHT22;3081;50.584;7.032;2023-04-25T02:50:32;6.60;99.90
6102;DHT22;3081;50.584;7.032;2023-04-25T02:52:58;6.60;99.90
6102;DHT22;3081;50.584;7.032;2023-04-25T02:55:25;6.60;99.90
6102;DHT22;3081;50.584;7.032;2023-04-25T02:57:52;6.60;99.90
6102;DHT22;3081;50.584;7.032;2023-04-25T03:00:21;6.60;99.90
6102;DHT22;3081;50.584;7.032;2023-04-25T03:02:48;6.60;99.90
6102;DHT22;3081;50.584;7.032;2023-04-25T03:05:16;6.50;99.90
6102;DHT22;3081;50.584;7.032;2023-04-25T03:07:43;6.60;99.90
6102;DHT22;3081;50.584;7.032;2023-04-25T03:10:11;6.50;99.90
6102;DHT22;3081;50.584;7.032;2023-04-25T03:12:38;6.60;99.90
6102;DHT22;3081;50.584;7.032;2023-04-25T03:15:06;6.70;99.90
6102;DHT22;3081;50.584;7.032;2023-04-25T03:17:33;6.70;99.90
6102;DHT22;3081;50.584;7.032;2023-04-25T03:20:00;6.80;99.90
6102;DHT22;3081;50.584;7.032;2023-04-25T03:22:28;6.80;99.90
6102;DHT22;3081;50.584;7.032;2023-04-25T03:24:55;6.80;99.90
6102;DHT22;3081;50.584;7.032;2023-04-25T03:27:22;6.80;99.90
6102;DHT22;3081;50.584;7.032;2023-04-25T03:29:49;6.90;99.90
6102;DHT22;3081;50.584;7.032;2023-04-25T03:32:16;6.80;99.90
6102;DHT22;3081;50.584;7.032;2023-04-25T03:34:42;6.80;99.90
6102;DHT22;3081;50.584;7.032;2023-04-25T03:37:09;6.80;99.90
6102;DHT22;3081;50.584;7.032;2023-04-25T03:39:38;6.80;99.90
6102;DHT22;3081;50.584;7.032;2023-04-25T03:42:05;6.80;99.90
6102;DHT22;3081;50.584;7.032;2023-04-25T03:44:31;6.80;99.90
6102;DHT22;3081;50.584;7.032;2023-04-25T03:46:58;6.80;99.90
6102;DHT22;3081;50.584;7.032;2023-04-25T03:49:25;6.70;99.90
6102;DHT22;3081;50.584;7.032;2023-04-25T03:51:52;6.70;99.90
6102;DHT22;3081;50.584;7.032;2023-04-25T03:54:19;6.70;99.90
6102;DHT22;3081;50.584;7.032;2023-04-25T03:56:47;6.60;99.90
6102;DHT22;3081;50.584;7.032;2023-04-25T03:59:15;6.60;99.90
6102;DHT22;3081;50.584;7.032;2023-04-25T04:01:42;6.60;99.90
6102;DHT22;3081;50.584;7.032;2023-04-25T04:04:08;6.60;99.90
6102;DHT22;3081;50.584;7.032;2023-04-25T04:06:35;6.70;99.90
6102;DHT22;3081;50.584;7.032;2023-04-25T04:09:02;6.70;99.90
6102;DHT22;3081;50.584;7.032;2023-04-25T04:11:29;6.70;99.90
6102;DHT22;3081;50.584;7.032;2023-04-25T04:13:59;6.70;99.90
6102;DHT22;3081;50.584;7.032;2023-04-25T04:16:26;6.70;99.90
6102;DHT22;3081;50.584;7.032;2023-04-25T04:18:53;6.70;99.90
6102;DHT22;3081;50.584;7.032;2023-04-25T04:21:19;6.70;99.90
6102;DHT22;3081;50.584;7.032;2023-04-25T04:23:46;6.80;99.90
6102;DHT22;3081;50.584;7.032;2023-04-25T04:26:13;6.80;99.90
6102;DHT22;3081;50.584;7.032;2023-04-25T04:28:42;6.80;99.90
6102;DHT22;3081;50.584;7.032;2023-04-25T04:31:10;6.80;99.90
6102;DHT22;3081;50.584;7.032;2023-04-25T04:33:38;6.70;99.90
6102;DHT22;3081;50.584;7.032;2023-04-25T04:36:05;6.80;99.90
6102;DHT22;3081;50.584;7.032;2023-04-25T04:38:33;6.80;99.90
6102;DHT22;3081;50.584;7.032;2023-04-25T04:41:00;6.80;99.90
6102;DHT22;3081;50.584;7.032;2023-04-25T04:43:27;6.80;99.90
6102;DHT22;3081;50.584;7.032;2023-04-25T04:45:55;6.80;99.90
6102;DHT22;3081;50.584;7.032;2023-04-25T04:48:24;6.90;99.90
6102;DHT22;3081;50.584;7.032;2023-04-25T04:50:51;6.90;99.90
6102;DHT22;3081;50.584;7.032;2023-04-25T04:53:18;6.90;99.90
6102;DHT22;3081;50.584;7.032;2023-04-25T04:55:45;6.90;99.90
6102;DHT22;3081;50.584;7.032;2023-04-25T04:58:12;7.00;99.90
6102;DHT22;3081;50.584;7.032;2023-04-25T05:00:39;6.90;99.90
6102;DHT22;3081;50.584;7.032;2023-04-25T05:03:06;6.90;99.90
6102;DHT22;3081;50.584;7.032;2023-04-25T05:05:34;6.90;99.90
6102;DHT22;3081;50.584;7.032;2023-04-25T05:08:01;7.00;99.90
6102;DHT22;3081;50.584;7.032;2023-04-25T05:10:28;7.10;99.90
6102;DHT22;3081;50.584;7.032;2023-04-25T05:12:54;7.20;99.90
6102;DHT22;3081;50.584;7.032;2023-04-25T05:15:21;7.20;99.90
6102;DHT22;3081;50.584;7.032;2023-04-25T05:17:48;7.20;99.90
6102;DHT22;3081;50.584;7.032;2023-04-25T05:20:15;7.30;99.90
6102;DHT22;3081;50.584;7.032;2023-04-25T05:22:45;7.30;99.90
6102;DHT22;3081;50.584;7.032;2023-04-25T05:25:12;7.30;99.90
6102;DHT22;3081;50.584;7.032;2023-04-25T05:27:39;7.40;99.90
6102;DHT22;3081;50.584;7.032;2023-04-25T05:30:07;7.40;99.90
6102;DHT22;3081;50.584;7.032;2023-04-25T05:32:34;7.40;99.90
6102;DHT22;3081;50.584;7.032;2023-04-25T05:35:01;7.40;99.90
6102;DHT22;3081;50.584;7.032;2023-04-25T05:37:28;7.50;99.90
6102;DHT22;3081;50.584;7.032;2023-04-25T05:39:57;7.60;99.90
6102;DHT22;3081;50.584;7.032;2023-04-25T05:42:24;7.60;99.90
6102;DHT22;3081;50.584;7.032;2023-04-25T05:44:51;7.70;99.90
6102;DHT22;3081;50.584;7.032;2023-04-25T05:47:18;7.70;99.90
6102;DHT22;3081;50.584;7.032;2023-04-25T05:49:45;7.70;99.90
6102;DHT22;3081;50.584;7.032;2023-04-25T05:52:12;7.70;99.90
6102;DHT22;3081;50.584;7.032;2023-04-25T05:54:40;7.70;99.90
6102;DHT22;3081;50.584;7.032;2023-04-25T05:57:08;7.70;99.90
6102;DHT22;3081;50.584;7.032;2023-04-25T05:59:35;7.70;99.90
6102;DHT22;3081;50.584;7.032;2023-04-25T06:02:02;7.80;99.90
6102;DHT22;3081;50.584;7.032;2023-04-25T06:04:29;7.80;99.90
6102;DHT22;3081;50.584;7.032;2023-04-25T06:06:56;8.00;99.90
6102;DHT22;3081;50.584;7.032;2023-04-25T06:09:23;8.00;99.90
6102;DHT22;3081;50.584;7.032;2023-04-25T06:11:50;8.00;99.90
6102;DHT22;3081;50.584;7.032;2023-04-25T06:14:18;8.00;99.90
6102;DHT22;3081;50.584;7.032;2023-04-25T06:16:45;8.00;99.90
6102;DHT22;3081;50.584;7.032;2023-04-25T06:19:12;8.00;99.90
6102;DHT22;3081;50.584;7.032;2023-04-25T06:21:39;8.00;99.90
6102;DHT22;3081;50.584;7.032;2023-04-25T06:24:06;7.90;99.90
6102;DHT22;3081;50.584;7.032;2023-04-25T06:26:33;8.00;99.90
6102;DHT22;3081;50.584;7.032;2023-04-25T06:29:00;8.10;99.90
6102;DHT22;3081;50.584;7.032;2023-04-25T06:31:28;8.10;99.90
6102;DHT22;3081;50.584;7.032;2023-04-25T06:33:58;8.20;99.90
6102;DHT22;3081;50.584;7.032;2023-04-25T06:36:24;8.30;99.90
6102;DHT22;3081;50.584;7.032;2023-04-25T06:38:53;8.20;99.90
6102;DHT22;3081;50.584;7.032;2023-04-25T06:41:20;8.20;99.90
6102;DHT22;3081;50.584;7.032;2023-04-25T06:43:47;8.20;99.90
6102;DHT22;3081;50.584;7.032;2023-04-25T06:46:14;8.20;99.90
6102;DHT22;3081;50.584;7.032;2023-04-25T06:48:42;8.30;99.90
6102;DHT22;3081;50.584;7.032;2023-04-25T06:51:09;8.50;99.90
6102;DHT22;3081;50.584;7.032;2023-04-25T06:53:36;8.70;99.90
6102;DHT22;3081;50.584;7.032;2023-04-25T06:56:03;9.00;99.90
6102;DHT22;3081;50.584;7.032;2023-04-25T06:58:30;9.20;99.90
6102;DHT22;3081;50.584;7.032;2023-04-25T07:00:57;9.40;99.90
6102;DHT22;3081;50.584;7.032;2023-04-25T07:03:24;9.60;99.90
6102;DHT22;3081;50.584;7.032;2023-04-25T07:05:52;9.80;99.90
6102;DHT22;3081;50.584;7.032;2023-04-25T07:08:19;9.90;99.90
6102;DHT22;3081;50.584;7.032;2023-04-25T07:10:46;9.90;99.90
6102;DHT22;3081;50.584;7.032;2023-04-25T07:13:13;9.90;99.90
6102;DHT22;3081;50.584;7.032;2023-04-25T07:15:40;10.00;99.90
6102;DHT22;3081;50.584;7.032;2023-04-25T07:18:07;10.00;99.90
6102;DHT22;3081;50.584;7.032;2023-04-25T07:20:34;9.90;99.90
6102;DHT22;3081;50.584;7.032;2023-04-25T07:23:02;9.70;99.90
6102;DHT22;3081;50.584;7.032;2023-04-25T07:25:29;9.70;99.90
6102;DHT22;3081;50.584;7.032;2023-04-25T07:27:57;9.90;99.90
6102;DHT22;3081;50.584;7.032;2023-04-25T07:30:24;10.10;99.90
6102;DHT22;3081;50.584;7.032;2023-04-25T07:32:52;10.30;99.90
6102;DHT22;3081;50.584;7.032;2023-04-25T07:35:19;10.30;99.90
6102;DHT22;3081;50.584;7.032;2023-04-25T07:37:46;10.40;99.90
6102;DHT22;3081;50.584;7.032;2023-04-25T07:40:14;10.30;99.90
6102;DHT22;3081;50.584;7.032;2023-04-25T07:42:42;10.40;99.90
6102;DHT22;3081;50.584;7.032;2023-04-25T07:45:09;10.40;99.90
6102;DHT22;3081;50.584;7.032;2023-04-25T07:47:36;10.30;99.90
6102;DHT22;3081;50.584;7.032;2023-04-25T07:50:04;10.30;99.90
6102;DHT22;3081;50.584;7.032;2023-04-25T07:52:31;10.40;99.90
6102;DHT22;3081;50.584;7.032;2023-04-25T07:54:58;10.40;99.90
6102;DHT22;3081;50.584;7.032;2023-04-25T07:57:27;10.30;99.90
6102;DHT22;3081;50.584;7.032;2023-04-25T07:59:54;10.10;99.90
6102;DHT22;3081;50.584;7.032;2023-04-25T08:02:21;10.10;99.90
6102;DHT22;3081;50.584;7.032;2023-04-25T08:04:47;10.20;99.90
6102;DHT22;3081;50.584;7.032;2023-04-25T08:07:15;10.40;99.90
6102;DHT22;3081;50.584;7.032;2023-04-25T08:09:42;10.60;99.90
6102;DHT22;3081;50.584;7.032;2023-04-25T08:12:09;10.80;99.90
6102;DHT22;3081;50.584;7.032;2023-04-25T08:14:37;11.00;99.90
6102;DHT22;3081;50.584;7.032;2023-04-25T08:17:05;10.90;99.90
6102;DHT22;3081;50.584;7.032;2023-04-25T08:19:32;10.90;99.90
6102;DHT22;3081;50.584;7.032;2023-04-25T08:21:59;10.90;99.90
6102;DHT22;3081;50.584;7.032;2023-04-25T08:24:25;10.80;99.90
6102;DHT22;3081;50.584;7.032;2023-04-25T08:26:52;10.90;99.90
6102;DHT22;3081;50.584;7.032;2023-04-25T08:29:19;11.10;99.90
6102;DHT22;3081;50.584;7.032;2023-04-25T08:31:50;11.20;99.90
6102;DHT22;3081;50.584;7.032;2023-04-25T08:34:18;11.20;99.90
6102;DHT22;3081;50.584;7.032;2023-04-25T08:36:45;11.00;99.90
6102;DHT22;3081;50.584;7.032;2023-04-25T08:39:12;10.80;99.90
6102;DHT22;3081;50.584;7.032;2023-04-25T08:41:40;10.80;99.90
6102;DHT22;3081;50.584;7.032;2023-04-25T08:44:10;10.80;99.90
6102;DHT22;3081;50.584;7.032;2023-04-25T08:46:38;10.90;99.90
6102;DHT22;3081;50.584;7.032;2023-04-25T08:49:08;10.90;99.90
6102;DHT22;3081;50.584;7.032;2023-04-25T08:51:46;11.00;99.90
6102;DHT22;3081;50.584;7.032;2023-04-25T08:54:14;11.10;99.90
6102;DHT22;3081;50.584;7.032;2023-04-25T08:56:44;11.10;99.90
6102;DHT22;3081;50.584;7.032;2023-04-25T08:59:11;11.20;99.90
6102;DHT22;3081;50.584;7.032;2023-04-25T09:01:38;11.30;99.90
6102;DHT22;3081;50.584;7.032;2023-04-25T09:04:06;11.20;99.90
6102;DHT22;3081;50.584;7.032;2023-04-25T09:06:34;11.10;99.90
6102;DHT22;3081;50.584;7.032;2023-04-25T09:09:03;11.20;99.90
6102;DHT22;3081;50.584;7.032;2023-04-25T09:11:31;11.00;99.90
6102;DHT22;3081;50.584;7.032;2023-04-25T09:14:12;11.00;99.90
6102;DHT22;3081;50.584;7.032;2023-04-25T09:17:06;11.00;99.90
6102;DHT22;3081;50.584;7.032;2023-04-25T09:19:36;10.90;99.90
6102;DHT22;3081;50.584;7.032;2023-04-25T09:22:05;10.80;99.90
6102;DHT22;3081;50.584;7.032;2023-04-25T09:24:34;11.00;99.90
6102;DHT22;3081;50.584;7.032;2023-04-25T09:27:03;11.30;99.90
6102;DHT22;3081;50.584;7.032;2023-04-25T09:29:31;11.60;99.90
6102;DHT22;3081;50.584;7.032;2023-04-25T09:32:18;11.90;99.90
6102;DHT22;3081;50.584;7.032;2023-04-25T09:34:48;11.90;99.90
6102;DHT22;3081;50.584;7.032;2023-04-25T09:37:20;11.70;99.90
6102;DHT22;3081;50.584;7.032;2023-04-25T09:39:47;11.80;99.90
6102;DHT22;3081;50.584;7.032;2023-04-25T09:42:15;11.70;99.90
6102;DHT22;3081;50.584;7.032;2023-04-25T09:44:43;11.70;99.90
6102;DHT22;3081;50.584;7.032;2023-04-25T09:47:11;11.50;99.90
6102;DHT22;3081;50.584;7.032;2023-04-25T09:49:40;11.10;99.90
6102;DHT22;3081;50.584;7.032;2023-04-25T09:52:13;11.10;99.90
6102;DHT22;3081;50.584;7.032;2023-04-25T09:54:40;11.20;99.90
6102;DHT22;3081;50.584;7.032;2023-04-25T09:57:11;11.30;99.90
6102;DHT22;3081;50.584;7.032;2023-04-25T09:59:42;11.20;99.90
6102;DHT22;3081;50.584;7.032;2023-04-25T10:02:10;11.10;99.90
6102;DHT22;3081;50.584;7.032;2023-04-25T10:04:38;11.80;99.90
6102;DHT22;3081;50.584;7.032;2023-04-25T10:07:06;12.10;99.90
6102;DHT22;3081;50.584;7.032;2023-04-25T10:09:37;12.60;99.90
6102;DHT22;3081;50.584;7.032;2023-04-25T10:12:05;13.30;99.90
6102;DHT22;3081;50.584;7.032;2023-04-25T10:14:33;14.10;99.90
6102;DHT22;3081;50.584;7.032;2023-04-25T10:17:01;15.30;99.90
6102;DHT22;3081;50.584;7.032;2023-04-25T10:19:28;15.50;99.90
6102;DHT22;3081;50.584;7.032;2023-04-25T10:22:03;15.30;99.90
6102;DHT22;3081;50.584;7.032;2023-04-25T10:24:31;14.60;97.00
6102;DHT22;3081;50.584;7.032;2023-04-25T10:26:59;13.90;98.70
6102;DHT22;3081;50.584;7.032;2023-04-25T10:29:27;13.80;98.70
6102;DHT22;3081;50.584;7.032;2023-04-25T10:31:54;13.80;98.90
6102;DHT22;3081;50.584;7.032;2023-04-25T10:34:24;13.40;98.40
6102;DHT22;3081;50.584;7.032;2023-04-25T10:37:03;12.90;99.00
6102;DHT22;3081;50.584;7.032;2023-04-25T10:39:32;12.60;99.90
6102;DHT22;3081;50.584;7.032;2023-04-25T10:42:02;12.10;99.40
6102;DHT22;3081;50.584;7.032;2023-04-25T10:44:29;11.90;99.90
6102;DHT22;3081;50.584;7.032;2023-04-25T10:46:57;11.70;99.90
6102;DHT22;3081;50.584;7.032;2023-04-25T10:49:32;11.80;99.90
6102;DHT22;3081;50.584;7.032;2023-04-25T10:52:16;12.10;99.90
6102;DHT22;3081;50.584;7.032;2023-04-25T10:54:46;12.30;99.90
6102;DHT22;3081;50.584;7.032;2023-04-25T10:57:32;12.10;99.90
6102;DHT22;3081;50.584;7.032;2023-04-25T11:00:05;12.10;99.90
6102;DHT22;3081;50.584;7.032;2023-04-25T11:02:37;12.00;99.90
6102;DHT22;3081;50.584;7.032;2023-04-25T11:05:05;11.90;99.90
6102;DHT22;3081;50.584;7.032;2023-04-25T11:07:37;12.20;99.90
6102;DHT22;3081;50.584;7.032;2023-04-25T11:10:05;12.80;99.90
6102;DHT22;3081;50.584;7.032;2023-04-25T11:12:33;13.50;99.90
6102;DHT22;3081;50.584;7.032;2023-04-25T11:15:02;14.60;99.10
6102;DHT22;3081;50.584;7.032;2023-04-25T11:17:29;15.30;97.60
6102;DHT22;3081;50.584;7.032;2023-04-25T11:19:56;15.30;94.70
6102;DHT22;3081;50.584;7.032;2023-04-25T11:22:23;15.20;94.10
6102;DHT22;3081;50.584;7.032;2023-04-25T11:24:50;15.40;93.60
6102;DHT22;3081;50.584;7.032;2023-04-25T11:27:17;15.40;92.90
6102;DHT22;3081;50.584;7.032;2023-04-25T11:29:46;15.30;93.30
6102;DHT22;3081;50.584;7.032;2023-04-25T11:32:15;15.40;92.40
6102;DHT22;3081;50.584;7.032;2023-04-25T11:34:43;15.60;91.50
6102;DHT22;3081;50.584;7.032;2023-04-25T11:37:11;15.70;90.60
6102;DHT22;3081;50.584;7.032;2023-04-25T11:39:43;15.90;90.60
6102;DHT22;3081;50.584;7.032;2023-04-25T11:42:10;16.00;89.40
6102;DHT22;3081;50.584;7.032;2023-04-25T11:44:38;16.50;89.30
6102;DHT22;3081;50.584;7.032;2023-04-25T11:47:07;16.20;90.60
6102;DHT22;3081;50.584;7.032;2023-04-25T11:49:35;16.20;90.00
6102;DHT22;3081;50.584;7.032;2023-04-25T11:52:02;16.60;89.30
6102;DHT22;3081;50.584;7.032;2023-04-25T11:54:29;16.90;88.60
6102;DHT22;3081;50.584;7.032;2023-04-25T11:56:56;17.80;88.00
6102;DHT22;3081;50.584;7.032;2023-04-25T11:59:24;18.70;85.60
6102;DHT22;3081;50.584;7.032;2023-04-25T12:01:52;18.50;80.00
6102;DHT22;3081;50.584;7.032;2023-04-25T12:04:22;17.40;79.40
6102;DHT22;3081;50.584;7.032;2023-04-25T12:06:52;15.90;83.90
6102;DHT22;3081;50.584;7.032;2023-04-25T12:09:20;15.00;87.70
6102;DHT22;3081;50.584;7.032;2023-04-25T12:11:52;14.40;89.00
6102;DHT22;3081;50.584;7.032;2023-04-25T12:14:23;13.80;90.50
6102;DHT22;3081;50.584;7.032;2023-04-25T12:16:51;13.40;91.00
6102;DHT22;3081;50.584;7.032;2023-04-25T12:19:19;12.90;90.80
6102;DHT22;3081;50.584;7.032;2023-04-25T12:21:48;12.80;91.30
6102;DHT22;3081;50.584;7.032;2023-04-25T12:24:16;12.90;92.20
6102;DHT22;3081;50.584;7.032;2023-04-25T12:26:48;13.20;92.40
6102;DHT22;3081;50.584;7.032;2023-04-25T12:29:20;13.50;91.90
6102;DHT22;3081;50.584;7.032;2023-04-25T12:31:48;14.50;92.80
6102;DHT22;3081;50.584;7.032;2023-04-25T12:34:15;16.20;90.00
6102;DHT22;3081;50.584;7.032;2023-04-25T12:36:42;17.00;86.10
6102;DHT22;3081;50.584;7.032;2023-04-25T12:39:14;16.90;86.90
6102;DHT22;3081;50.584;7.032;2023-04-25T12:41:41;16.50;85.80
6102;DHT22;3081;50.584;7.032;2023-04-25T12:44:08;16.00;86.40
6102;DHT22;3081;50.584;7.032;2023-04-25T12:46:35;15.60;86.90
6102;DHT22;3081;50.584;7.032;2023-04-25T12:49:03;15.10;87.60
6102;DHT22;3081;50.584;7.032;2023-04-25T12:51:30;14.60;89.60
6102;DHT22;3081;50.584;7.032;2023-04-25T12:53:58;14.20;89.50
6102;DHT22;3081;50.584;7.032;2023-04-25T12:56:27;13.80;90.30
6102;DHT22;3081;50.584;7.032;2023-04-25T12:58:54;13.50;91.10
6102;DHT22;3081;50.584;7.032;2023-04-25T13:01:21;13.30;91.40
6102;DHT22;3081;50.584;7.032;2023-04-25T13:03:48;13.40;92.30
6102;DHT22;3081;50.584;7.032;2023-04-25T13:06:15;13.60;92.80
6102;DHT22;3081;50.584;7.032;2023-04-25T13:08:43;13.60;92.60
6102;DHT22;3081;50.584;7.032;2023-04-25T13:11:10;13.60;92.70
6102;DHT22;3081;50.584;7.032;2023-04-25T13:13:39;13.70;92.30
6102;DHT22;3081;50.584;7.032;2023-04-25T13:16:06;13.80;91.70
6102;DHT22;3081;50.584;7.032;2023-04-25T13:18:34;13.80;91.90
6102;DHT22;3081;50.584;7.032;2023-04-25T13:21:01;13.90;92.00
6102;DHT22;3081;50.584;7.032;2023-04-25T13:23:29;14.00;91.50
6102;DHT22;3081;50.584;7.032;2023-04-25T13:25:57;13.80;91.70
6102;DHT22;3081;50.584;7.032;2023-04-25T13:28:24;13.80;91.50
6102;DHT22;3081;50.584;7.032;2023-04-25T13:30:53;13.70;92.00
6102;DHT22;3081;50.584;7.032;2023-04-25T13:33:21;13.50;92.20
6102;DHT22;3081;50.584;7.032;2023-04-25T13:35:49;13.50;92.30
6102;DHT22;3081;50.584;7.032;2023-04-25T13:38:20;13.20;91.40
6102;DHT22;3081;50.584;7.032;2023-04-25T13:40:47;13.00;91.60
6102;DHT22;3081;50.584;7.032;2023-04-25T13:43:15;12.90;91.60
6102;DHT22;3081;50.584;7.032;2023-04-25T13:45:42;12.80;92.60
6102;DHT22;3081;50.584;7.032;2023-04-25T13:48:10;13.00;92.50
6102;DHT22;3081;50.584;7.032;2023-04-25T13:50:37;13.20;91.90
6102;DHT22;3081;50.584;7.032;2023-04-25T13:53:04;13.30;91.90
6102;DHT22;3081;50.584;7.032;2023-04-25T13:55:31;13.50;91.90
6102;DHT22;3081;50.584;7.032;2023-04-25T13:57:58;13.80;91.10
6102;DHT22;3081;50.584;7.032;2023-04-25T14:00:25;14.00;90.90
6102;DHT22;3081;50.584;7.032;2023-04-25T14:02:52;14.50;90.50
6102;DHT22;3081;50.584;7.032;2023-04-25T14:05:20;14.80;90.00
6102;DHT22;3081;50.584;7.032;2023-04-25T14:07:47;14.20;90.10
6102;DHT22;3081;50.584;7.032;2023-04-25T14:10:14;13.50;90.70
6102;DHT22;3081;50.584;7.032;2023-04-25T14:12:42;12.90;91.20
6102;DHT22;3081;50.584;7.032;2023-04-25T14:15:09;12.50;91.50
6102;DHT22;3081;50.584;7.032;2023-04-25T14:17:37;12.20;91.90
6102;DHT22;3081;50.584;7.032;2023-04-25T14:20:05;11.90;92.30
6102;DHT22;3081;50.584;7.032;2023-04-25T14:22:34;11.60;93.40
6102;DHT22;3081;50.584;7.032;2023-04-25T14:25:02;11.40;94.50
6102;DHT22;3081;50.584;7.032;2023-04-25T14:27:29;11.30;95.60
6102;DHT22;3081;50.584;7.032;2023-04-25T14:29:56;11.20;94.90
6102;DHT22;3081;50.584;7.032;2023-04-25T14:32:23;11.10;94.50
6102;DHT22;3081;50.584;7.032;2023-04-25T14:34:50;11.10;95.10
6102;DHT22;3081;50.584;7.032;2023-04-25T14:37:17;11.40;95.10
6102;DHT22;3081;50.584;7.032;2023-04-25T14:39:45;11.80;94.50
6102;DHT22;3081;50.584;7.032;2023-04-25T14:42:12;12.50;94.20
6102;DHT22;3081;50.584;7.032;2023-04-25T14:44:39;14.60;93.30
6102;DHT22;3081;50.584;7.032;2023-04-25T14:47:05;17.90;84.30
6102;DHT22;3081;50.584;7.032;2023-04-25T14:49:33;18.40;81.90
6102;DHT22;3081;50.584;7.032;2023-04-25T14:51:59;18.60;81.90
6102;DHT22;3081;50.584;7.032;2023-04-25T14:54:27;18.70;79.00
6102;DHT22;3081;50.584;7.032;2023-04-25T14:56:55;20.00;79.50
6102;DHT22;3081;50.584;7.032;2023-04-25T14:59:23;22.10;74.40
6102;DHT22;3081;50.584;7.032;2023-04-25T15:01:50;23.20;70.00
6102;DHT22;3081;50.584;7.032;2023-04-25T15:04:18;23.60;61.10
6102;DHT22;3081;50.584;7.032;2023-04-25T15:06:45;23.20;58.40
6102;DHT22;3081;50.584;7.032;2023-04-25T15:09:12;24.10;59.10
6102;DHT22;3081;50.584;7.032;2023-04-25T15:11:39;26.70;56.20
6102;DHT22;3081;50.584;7.032;2023-04-25T15:14:07;28.80;51.10
6102;DHT22;3081;50.584;7.032;2023-04-25T15:16:34;29.90;45.30
6102;DHT22;3081;50.584;7.032;2023-04-25T15:19:01;28.00;43.10
6102;DHT22;3081;50.584;7.032;2023-04-25T15:21:30;26.90;46.40
6102;DHT22;3081;50.584;7.032;2023-04-25T15:23:57;26.00;45.30
6102;DHT22;3081;50.584;7.032;2023-04-25T15:26:23;23.10;48.10
6102;DHT22;3081;50.584;7.032;2023-04-25T15:28:51;20.10;53.60
6102;DHT22;3081;50.584;7.032;2023-04-25T15:31:19;18.00;58.60
6102;DHT22;3081;50.584;7.032;2023-04-25T15:33:46;16.60;61.60
6102;DHT22;3081;50.584;7.032;2023-04-25T15:36:13;15.90;62.30
6102;DHT22;3081;50.584;7.032;2023-04-25T15:38:42;16.70;62.00
6102;DHT22;3081;50.584;7.032;2023-04-25T15:41:08;18.30;58.20
6102;DHT22;3081;50.584;7.032;2023-04-25T15:43:36;17.90;58.00
6102;DHT22;3081;50.584;7.032;2023-04-25T15:46:03;17.20;60.00
6102;DHT22;3081;50.584;7.032;2023-04-25T15:48:32;16.30;60.80
6102;DHT22;3081;50.584;7.032;2023-04-25T15:50:59;15.50;64.30
6102;DHT22;3081;50.584;7.032;2023-04-25T15:53:25;15.10;64.80
6102;DHT22;3081;50.584;7.032;2023-04-25T15:55:52;14.60;66.10
6102;DHT22;3081;50.584;7.032;2023-04-25T15:58:19;14.20;66.60
6102;DHT22;3081;50.584;7.032;2023-04-25T16:00:46;13.90;67.60
6102;DHT22;3081;50.584;7.032;2023-04-25T16:03:15;13.70;70.00
6102;DHT22;3081;50.584;7.032;2023-04-25T16:05:44;13.80;69.80
6102;DHT22;3081;50.584;7.032;2023-04-25T16:08:10;14.00;70.40
6102;DHT22;3081;50.584;7.032;2023-04-25T16:10:37;14.10;71.30
6102;DHT22;3081;50.584;7.032;2023-04-25T16:13:04;14.30;71.70